Time;durP1;ratioP1;P1;durP2;ratioP2;P2;SDS_P1;SDS_P2;PMS_P1;PMS_P2;Temp;Humidity;BMP_temperature;BMP_pressure;BME280_temperature;BME280_humidity;BME280_pressure;Samples;Min_cycle;Max_cycle;Signal;HPM_P1;HPM_P2
2021/06/15 00:00:53;;;;;;;7.37;5.67;;;;;;;13.54;95.53;101016.66;5041848;28;20236;-70
2021/06/15 00:03:20;;;;;;;6.53;5.20;;;;;;;13.57;95.46;101017.44;5036272;28;20559;-71
2021/06/15 00:05:46;;;;;;;5.97;4.57;;;;;;;13.53;94.84;101017.59;5041741;28;20200;-70
2021/06/15 00:08:13;;;;;;;8.73;4.47;;;;;;;13.52;94.68;101016.72;5041731;28;20221;-71
2021/06/15 00:10:40;;;;;;;8.17;4.70;;;;;;;13.46;94.94;101013.47;5043095;28;20199;-71
2021/06/15 00:13:06;;;;;;;6.47;4.40;;;;;;;13.41;94.69;101019.69;5037403;28;20205;-70
2021/06/15 00:15:33;;;;;;;6.67;4.47;;;;;;;13.49;95.97;101011.59;5042762;28;20925;-71
2021/06/15 00:18:00;;;;;;;6.67;4.70;;;;;;;13.39;95.55;101012.78;5047574;28;21487;-71
2021/06/15 00:20:27;;;;;;;7.27;4.97;;;;;;;13.34;95.73;101009.47;5045557;28;20206;-71
2021/06/15 00:22:54;;;;;;;5.80;4.33;;;;;;;13.34;95.84;101004.22;5047333;28;20213;-71
2021/06/15 00:25:20;;;;;;;7.20;4.83;;;;;;;13.32;95.98;101006.88;5048066;28;20702;-71
2021/06/15 00:27:48;;;;;;;4.70;4.00;;;;;;;13.27;95.71;101006.13;5048203;28;20800;-71
2021/06/15 00:30:16;;;;;;;9.30;5.00;;;;;;;13.18;96.05;101009.03;5054140;28;20208;-71
2021/06/15 00:32:45;;;;;;;6.20;4.47;;;;;;;13.18;96.47;101006.44;5026709;28;20218;-71
2021/06/15 00:35:12;;;;;;;5.17;4.60;;;;;;;13.17;96.52;100997.69;5036522;28;20640;-71
2021/06/15 00:37:39;;;;;;;7.17;4.40;;;;;;;13.11;96.67;100995.28;5042888;28;20592;-70
2021/06/15 00:40:07;;;;;;;7.00;4.63;;;;;;;13.05;96.11;100998.94;5043148;28;20480;-70
2021/06/15 00:42:33;;;;;;;6.53;4.33;;;;;;;13.04;96.87;100999.84;5047391;28;20363;-71
2021/06/15 00:45:00;;;;;;;6.07;4.87;;;;;;;12.99;96.72;100998.28;5043653;28;20210;-71
2021/06/15 00:47:27;;;;;;;7.10;4.57;;;;;;;12.99;97.36;101012.22;5042679;28;20247;-71
2021/06/15 00:49:56;;;;;;;8.20;4.83;;;;;;;12.97;97.96;101002.69;5030022;28;20214;-71
2021/06/15 00:52:24;;;;;;;5.23;4.30;;;;;;;12.96;97.76;101000.97;5047455;28;20334;-71
2021/06/15 00:54:51;;;;;;;8.27;4.90;;;;;;;13.03;98.88;101005.13;5044606;28;20220;-71
2021/06/15 00:57:21;;;;;;;5.83;4.30;;;;;;;12.99;98.17;101001.75;5044091;28;20227;-71
2021/06/15 00:59:48;;;;;;;7.93;4.97;;;;;;;12.91;97.96;101002.88;5025076;28;20213;-71
2021/06/15 01:02:15;;;;;;;5.47;4.17;;;;;;;12.89;98.54;101010.75;5037527;28;20741;-71
2021/06/15 01:04:41;;;;;;;4.80;4.07;;;;;;;12.88;98.78;101009.91;5039115;28;20218;-71
2021/06/15 01:07:13;;;;;;;4.90;4.33;;;;;;;12.73;97.99;101010.34;5035209;28;20277;-71
2021/06/15 01:09:48;;;;;;;5.30;4.33;;;;;;;12.77;98.54;101008.50;5026535;28;20205;-70
2021/06/15 01:12:27;;;;;;;5.83;4.47;;;;;;;12.73;98.52;101004.28;5044826;28;20301;-71
2021/06/15 01:15:06;;;;;;;7.30;5.07;;;;;;;12.71;98.16;101003.47;5046424;28;20603;-71
2021/06/15 01:17:38;;;;;;;6.73;4.53;;;;;;;12.74;98.96;100998.16;5026622;28;20258;-70
2021/06/15 01:20:18;;;;;;;6.30;4.70;;;;;;;12.73;99.71;100997.28;5027802;28;20214;-70
2021/06/15 01:23:09;;;;;;;6.27;4.97;;;;;;;12.71;99.89;100988.63;5028194;28;20201;-71
2021/06/15 01:25:48;;;;;;;5.90;4.90;;;;;;;12.64;99.23;100998.41;5042470;28;20300;-70
2021/06/15 01:28:23;;;;;;;5.60;4.77;;;;;;;12.60;99.06;100996.78;5046114;28;20240;-71
2021/06/15 01:30:57;;;;;;;6.97;4.73;;;;;;;12.61;99.83;100992.41;5046671;28;20235;-71
2021/06/15 01:33:24;;;;;;;6.63;4.77;;;;;;;12.56;100.00;100987.31;5022984;28;20320;-71
2021/06/15 01:35:53;;;;;;;7.63;4.60;;;;;;;12.57;100.00;100989.00;5042713;28;20209;-71
2021/06/15 01:38:26;;;;;;;8.00;4.47;;;;;;;12.56;100.00;100984.69;5049484;28;20234;-71
2021/06/15 01:40:59;;;;;;;6.37;4.60;;;;;;;12.48;100.00;100982.28;5047064;28;20201;-71
2021/06/15 01:43:32;;;;;;;6.10;4.27;;;;;;;12.52;100.00;100983.06;5043141;28;20458;-71
2021/06/15 01:46:03;;;;;;;5.83;4.70;;;;;;;12.44;100.00;100987.66;5044371;28;20696;-70
2021/06/15 01:48:39;;;;;;;5.33;4.57;;;;;;;12.48;100.00;100986.66;5019075;28;20234;-71
2021/06/15 01:51:09;;;;;;;5.73;4.50;;;;;;;12.40;100.00;100986.91;5045803;28;20235;-71
2021/06/15 01:53:41;;;;;;;5.57;4.60;;;;;;;12.37;100.00;100994.81;5027843;28;20208;-71
2021/06/15 01:56:09;;;;;;;6.67;4.40;;;;;;;12.34;100.00;100992.28;5022216;28;20552;-71
2021/06/15 01:58:44;;;;;;;6.07;4.80;;;;;;;12.32;100.00;100997.53;5021176;28;20594;-71
2021/06/15 02:01:12;;;;;;;5.93;4.20;;;;;;;12.37;100.00;100993.97;5022034;28;20200;-71
2021/06/15 02:03:44;;;;;;;9.07;5.00;;;;;;;12.38;100.00;100991.28;5046283;28;20234;-71
2021/06/15 02:06:19;;;;;;;5.97;4.97;;;;;;;12.40;100.00;100992.13;5026587;28;20775;-71
2021/06/15 02:08:48;;;;;;;6.30;4.50;;;;;;;12.27;100.00;100994.19;5043949;28;20294;-71
2021/06/15 02:11:34;;;;;;;6.70;4.93;;;;;;;12.21;100.00;100983.94;5026371;28;20213;-73
2021/06/15 02:14:24;;;;;;;6.03;4.63;;;;;;;12.11;100.00;100987.69;5035762;28;20203;-73
2021/06/15 02:17:06;;;;;;;9.70;4.97;;;;;;;12.11;100.00;100985.06;5044954;28;20224;-70
2021/06/15 02:19:45;;;;;;;5.37;4.40;;;;;;;12.19;100.00;100992.69;5044895;28;20206;-70
2021/06/15 02:22:16;;;;;;;7.93;5.23;;;;;;;12.17;100.00;100987.53;5030579;28;20285;-71
2021/06/15 02:24:46;;;;;;;6.90;4.37;;;;;;;12.07;100.00;100992.13;5044297;28;20207;-71
2021/06/15 02:27:17;;;;;;;7.07;4.47;;;;;;;12.11;100.00;100987.69;5044092;28;20277;-70
2021/06/15 02:29:45;;;;;;;7.07;4.50;;;;;;;12.04;100.00;100986.13;5027759;28;20203;-71
2021/06/15 02:32:21;;;;;;;7.77;5.10;;;;;;;12.09;100.00;100984.25;5041770;28;20247;-71
2021/06/15 02:34:50;;;;;;;7.37;4.93;;;;;;;11.97;100.00;100993.25;5030424;28;20207;-71
2021/06/15 02:37:24;;;;;;;7.50;4.90;;;;;;;12.06;100.00;100990.41;5045683;28;20234;-71
2021/06/15 02:39:52;;;;;;;7.20;4.80;;;;;;;11.95;100.00;100992.44;5042388;28;20629;-71
2021/06/15 02:42:20;;;;;;;6.10;4.67;;;;;;;11.98;100.00;100991.50;5046283;28;20198;-71
2021/06/15 02:44:52;;;;;;;7.30;5.23;;;;;;;11.88;100.00;100981.25;5048112;28;20225;-71
2021/06/15 02:47:20;;;;;;;5.93;4.60;;;;;;;11.88;100.00;100986.50;5044970;28;20212;-71
2021/06/15 02:49:52;;;;;;;5.93;4.43;;;;;;;11.89;100.00;100985.59;5047056;28;20555;-71
2021/06/15 02:52:29;;;;;;;6.13;4.40;;;;;;;11.87;100.00;100994.38;5046611;28;20210;-71
2021/06/15 02:54:59;;;;;;;8.33;4.60;;;;;;;11.86;100.00;100984.81;5025301;28;20250;-71
2021/06/15 02:57:26;;;;;;;6.03;4.40;;;;;;;11.84;100.00;100991.84;5040840;28;20278;-71
2021/06/15 02:59:56;;;;;;;8.17;5.20;;;;;;;11.76;100.00;100986.81;5045907;28;20314;-71
2021/06/15 03:02:23;;;;;;;6.83;4.80;;;;;;;11.77;100.00;100988.53;5023234;28;20275;-71
2021/06/15 03:04:50;;;;;;;5.47;4.60;;;;;;;11.75;100.00;100991.19;5024130;28;20204;-71
2021/06/15 03:07:16;;;;;;;8.33;5.03;;;;;;;11.78;100.00;100990.22;5022923;28;20223;-71
2021/06/15 03:09:44;;;;;;;5.87;4.87;;;;;;;11.74;100.00;100994.69;5042118;28;20262;-71
2021/06/15 03:12:19;;;;;;;8.47;5.13;;;;;;;11.70;100.00;100992.19;5045049;28;20214;-71
2021/06/15 03:14:57;;;;;;;6.27;4.80;;;;;;;11.72;100.00;100993.88;5045704;28;20244;-71
2021/06/15 03:17:27;;;;;;;7.40;4.77;;;;;;;11.83;100.00;100998.81;5045459;28;20227;-71
2021/06/15 03:20:00;;;;;;;9.17;5.07;;;;;;;11.90;100.00;101003.00;5024126;28;20203;-71
2021/06/15 03:22:32;;;;;;;7.67;5.13;;;;;;;11.87;100.00;101000.47;5041747;28;20548;-71
2021/06/15 03:25:01;;;;;;;6.70;4.50;;;;;;;11.84;100.00;101002.31;5044146;28;20775;-71
2021/06/15 03:27:38;;;;;;;6.07;5.13;;;;;;;11.86;100.00;101005.72;5026931;28;20278;-71
2021/06/15 03:30:09;;;;;;;7.33;5.17;;;;;;;11.82;100.00;101004.06;5040100;28;20280;-72
2021/06/15 03:32:46;;;;;;;6.13;5.10;;;;;;;11.95;100.00;101000.28;5020894;28;20220;-71
2021/06/15 03:35:15;;;;;;;6.67;5.00;;;;;;;11.94;100.00;101011.63;5023134;28;20203;-72
2021/06/15 03:37:51;;;;;;;5.80;5.20;;;;;;;11.91;100.00;101011.72;5023193;28;20234;-71
2021/06/15 03:40:22;;;;;;;6.27;5.13;;;;;;;11.97;100.00;101006.34;5045599;28;20203;-71
2021/06/15 03:42:51;;;;;;;9.27;5.23;;;;;;;12.00;100.00;101003.66;5049894;28;20211;-71
2021/06/15 03:45:18;;;;;;;6.67;5.13;;;;;;;12.05;100.00;101003.53;5049323;28;20840;-71
2021/06/15 03:47:48;;;;;;;6.37;4.90;;;;;;;12.11;100.00;101005.97;5039444;28;20233;-71
2021/06/15 03:50:17;;;;;;;9.13;5.77;;;;;;;12.08;100.00;101017.38;5045658;28;20207;-71
2021/06/15 03:52:45;;;;;;;7.57;6.00;;;;;;;12.15;100.00;101012.81;5038187;28;20596;-71
2021/06/15 03:55:18;;;;;;;7.07;5.53;;;;;;;12.25;100.00;101009.06;5044895;28;20195;-71
2021/06/15 03:57:46;;;;;;;7.07;5.27;;;;;;;12.27;100.00;101012.50;5049369;28;20246;-71
2021/06/15 04:00:16;;;;;;;7.93;5.23;;;;;;;12.32;100.00;101013.22;5051431;28;20198;-71
2021/06/15 04:02:46;;;;;;;9.33;5.47;;;;;;;12.49;100.00;101006.69;5042964;28;20297;-71
2021/06/15 04:05:15;;;;;;;6.93;5.77;;;;;;;12.54;100.00;101002.19;5043658;28;20671;-71
2021/06/15 04:07:43;;;;;;;6.80;5.40;;;;;;;12.62;100.00;101002.81;5047324;28;20349;-71
2021/06/15 04:10:11;;;;;;;7.30;5.07;;;;;;;12.69;100.00;101001.75;5041627;28;20233;-71
2021/06/15 04:12:38;;;;;;;10.67;6.10;;;;;;;12.82;100.00;100999.66;5052027;28;20750;-71
2021/06/15 04:15:08;;;;;;;9.03;5.50;;;;;;;12.96;100.00;100999.22;5043333;28;20207;-72
2021/06/15 04:17:38;;;;;;;9.60;5.67;;;;;;;13.07;100.00;100999.75;5025080;28;20233;-71
2021/06/15 04:20:07;;;;;;;9.63;6.27;;;;;;;13.25;100.00;101000.94;5044367;28;20503;-71
2021/06/15 04:22:37;;;;;;;8.57;5.87;;;;;;;13.42;100.00;101000.44;5046597;28;20201;-71
2021/06/15 04:25:05;;;;;;;12.60;5.70;;;;;;;13.60;100.00;101008.63;5046203;28;20287;-71
2021/06/15 04:27:34;;;;;;;8.17;5.67;;;;;;;13.68;98.97;101008.38;5048925;28;20702;-72
2021/06/15 04:30:02;;;;;;;9.00;5.93;;;;;;;13.75;98.37;101010.72;5043161;28;20212;-71
2021/06/15 04:32:32;;;;;;;8.87;5.70;;;;;;;13.84;98.53;101009.56;5042006;28;20926;-71
2021/06/15 04:35:02;;;;;;;11.10;6.00;;;;;;;13.94;97.28;101013.59;5022734;28;20211;-71
2021/06/15 04:37:33;;;;;;;8.30;5.90;;;;;;;14.06;96.93;101012.31;5038542;28;20234;-71
2021/06/15 04:40:11;;;;;;;11.03;5.30;;;;;;;14.17;96.07;101010.16;5044364;28;20734;-71
2021/06/15 04:42:44;;;;;;;7.97;5.60;;;;;;;14.36;95.20;101014.78;5044729;28;20204;-72
2021/06/15 04:45:12;;;;;;;8.80;5.67;;;;;;;14.54;93.63;101014.09;5046673;28;20216;-71
2021/06/15 04:47:44;;;;;;;9.13;5.57;;;;;;;14.77;91.79;101022.94;5044709;28;20230;-71
2021/06/15 04:50:14;;;;;;;8.07;5.27;;;;;;;14.99;91.78;101027.38;5044715;28;20199;-71
2021/06/15 04:52:45;;;;;;;7.10;4.90;;;;;;;15.03;89.96;101034.22;5047106;28;20237;-72
2021/06/15 04:55:15;;;;;;;9.07;5.00;;;;;;;15.10;90.96;101038.31;5047435;28;20210;-71
2021/06/15 04:57:45;;;;;;;7.97;5.20;;;;;;;15.22;89.83;101039.63;5045263;28;20237;-71
2021/06/15 05:00:12;;;;;;;6.43;4.80;;;;;;;15.34;89.47;101032.13;5041537;28;20223;-71
2021/06/15 05:02:41;;;;;;;6.37;4.97;;;;;;;15.44;88.61;101040.50;5025783;28;20264;-71
2021/06/15 05:05:10;;;;;;;9.57;4.77;;;;;;;15.48;88.19;101035.97;5044642;28;20552;-71
2021/06/15 05:07:37;;;;;;;9.00;4.67;;;;;;;15.58;88.30;101036.44;5042512;28;20805;-71
2021/06/15 05:10:05;;;;;;;7.23;4.40;;;;;;;15.67;87.45;101038.69;5038692;28;20217;-72
2021/06/15 05:12:38;;;;;;;9.80;4.80;;;;;;;15.81;87.29;101036.41;5049259;28;20215;-72
2021/06/15 05:15:05;;;;;;;5.73;4.63;;;;;;;15.95;87.17;101035.81;5043143;28;20210;-72
2021/06/15 05:17:32;;;;;;;7.17;5.00;;;;;;;16.11;85.93;101032.53;5043397;28;20219;-71
2021/06/15 05:19:59;;;;;;;9.77;4.87;;;;;;;16.17;85.55;101033.13;5042000;28;20313;-72
2021/06/15 05:22:28;;;;;;;7.97;4.67;;;;;;;16.36;84.85;101040.22;5047618;28;20301;-71
2021/06/15 05:24:56;;;;;;;9.73;4.87;;;;;;;16.54;83.80;101036.78;5043779;28;20261;-72
2021/06/15 05:27:25;;;;;;;7.80;4.57;;;;;;;16.70;83.69;101036.09;5042941;28;20223;-72
2021/06/15 05:29:54;;;;;;;8.50;4.87;;;;;;;16.81;83.39;101039.94;5042957;28;20261;-71
2021/06/15 05:32:20;;;;;;;6.23;4.70;;;;;;;16.97;82.75;101041.91;5041187;28;20194;-72
2021/06/15 05:34:47;;;;;;;8.77;4.90;;;;;;;17.14;82.67;101041.97;5034332;28;20707;-72
2021/06/15 05:37:15;;;;;;;7.20;4.57;;;;;;;17.26;81.25;101052.88;5032979;28;20222;-72
2021/06/15 05:39:42;;;;;;;7.73;4.83;;;;;;;17.37;81.68;101048.78;5043665;28;20264;-72
2021/06/15 05:42:11;;;;;;;6.87;4.50;;;;;;;17.53;80.16;101050.69;5035971;28;20214;-72
2021/06/15 05:44:37;;;;;;;5.70;4.07;;;;;;;17.72;79.93;101054.13;5039966;28;20225;-72
2021/06/15 05:47:06;;;;;;;9.83;4.67;;;;;;;17.92;80.36;101050.56;5036966;28;20227;-71
2021/06/15 05:49:32;;;;;;;7.43;4.13;;;;;;;18.08;78.92;101053.28;5040848;28;20297;-72
2021/06/15 05:52:10;;;;;;;4.83;3.60;;;;;;;18.26;78.86;101055.91;5039203;28;20737;-72
2021/06/15 05:54:39;;;;;;;6.53;3.83;;;;;;;18.33;76.82;101067.84;5038925;28;20230;-72
2021/06/15 05:57:13;;;;;;;8.77;4.43;;;;;;;18.31;76.33;101067.06;5038541;28;20226;-71
2021/06/15 05:59:56;;;;;;;5.43;3.47;;;;;;;18.34;74.57;101070.38;5028127;28;20203;-71
2021/06/15 06:02:48;;;;;;;5.57;3.60;;;;;;;18.50;74.68;101070.47;5035624;28;20212;-72
2021/06/15 06:08:08;;;;;;;4.63;3.40;;;;;;;18.76;76.00;101062.94;5038496;28;20366;-72
2021/06/15 06:10:36;;;;;;;6.23;4.07;;;;;;;18.90;73.25;101059.59;5037823;28;20208;-70
2021/06/15 06:13:05;;;;;;;5.97;3.70;;;;;;;19.06;73.44;101071.03;5037972;28;20274;-71
2021/06/15 06:15:31;;;;;;;5.97;3.63;;;;;;;19.17;72.36;101066.94;5023643;28;20652;-72
2021/06/15 06:18:06;;;;;;;5.17;4.00;;;;;;;19.35;72.75;101079.16;5040899;28;20575;-72
2021/06/15 06:20:32;;;;;;;7.60;4.00;;;;;;;19.50;70.20;101077.44;5041209;28;20203;-72
2021/06/15 06:22:59;;;;;;;6.30;3.47;;;;;;;19.61;70.92;101074.16;5047170;28;20600;-71
2021/06/15 06:25:27;;;;;;;5.43;3.53;;;;;;;19.71;70.72;101072.72;5048287;28;20218;-72
2021/06/15 06:27:54;;;;;;;6.60;3.60;;;;;;;19.79;69.59;101082.91;5036256;28;20218;-71
2021/06/15 06:30:21;;;;;;;5.93;3.90;;;;;;;19.91;69.67;101082.19;5045085;28;20276;-73
2021/06/15 06:32:47;;;;;;;3.77;3.30;;;;;;;20.11;69.87;101082.81;5033443;28;20214;-71
2021/06/15 06:35:16;;;;;;;6.40;3.67;;;;;;;20.23;68.28;101080.28;5038765;28;20223;-72
2021/06/15 06:37:42;;;;;;;5.43;3.43;;;;;;;20.46;69.95;101082.50;5040359;28;20323;-73
2021/06/15 06:40:10;;;;;;;7.93;3.43;;;;;;;20.56;67.24;101089.81;5041294;28;20204;-72
2021/06/15 06:42:36;;;;;;;4.80;3.40;;;;;;;20.79;68.93;101084.91;5043773;28;20651;-73
2021/06/15 06:45:04;;;;;;;4.20;3.00;;;;;;;20.89;66.10;101095.78;5045078;28;20558;-73
2021/06/15 06:47:30;;;;;;;3.70;2.97;;;;;;;20.95;66.25;101096.28;5044186;28;20227;-70
2021/06/15 06:49:57;;;;;;;5.20;3.03;;;;;;;21.08;67.81;101096.34;5042917;28;20202;-73
2021/06/15 06:52:24;;;;;;;3.77;3.10;;;;;;;21.16;66.37;101095.88;5042837;28;20210;-73
2021/06/15 06:54:51;;;;;;;4.23;3.27;;;;;;;21.36;65.48;101092.78;5037473;28;20227;-73
2021/06/15 06:57:17;;;;;;;4.17;3.00;;;;;;;21.47;64.50;101096.59;5040524;28;20223;-73
2021/06/15 06:59:44;;;;;;;4.43;2.93;;;;;;;21.68;64.27;101089.88;5039580;28;20947;-73
2021/06/15 07:02:10;;;;;;;5.97;3.50;;;;;;;21.99;63.91;101084.38;5047142;28;20222;-71
2021/06/15 07:04:36;;;;;;;5.57;3.10;;;;;;;22.16;64.85;101094.66;5036970;28;20205;-72
2021/06/15 07:07:04;;;;;;;3.60;2.73;;;;;;;22.05;62.21;101091.91;5036145;28;20224;-72
2021/06/15 07:09:31;;;;;;;3.80;2.90;;;;;;;22.17;63.81;101092.88;5040569;28;20787;-72
2021/06/15 07:11:58;;;;;;;6.87;3.27;;;;;;;22.25;63.66;101093.19;5040304;28;20199;-73
2021/06/15 07:14:24;;;;;;;5.67;3.23;;;;;;;22.19;61.71;101086.50;5040040;28;20215;-74
2021/06/15 07:16:51;;;;;;;5.00;3.20;;;;;;;22.20;61.32;101090.00;5037546;28;20231;-72
2021/06/15 07:19:17;;;;;;;3.97;2.70;;;;;;;22.17;60.87;101095.53;5039825;28;20294;-74
2021/06/15 07:21:43;;;;;;;4.27;2.67;;;;;;;22.13;60.51;101092.25;5038510;28;20206;-69
2021/06/15 07:24:10;;;;;;;4.57;2.57;;;;;;;22.27;60.92;101088.69;5040299;28;20447;-72
2021/06/15 07:26:38;;;;;;;4.73;2.60;;;;;;;22.34;60.01;101091.75;5035647;28;20219;-72
2021/06/15 07:29:05;;;;;;;3.83;2.83;;;;;;;22.44;60.96;101085.75;5041579;28;20306;-73
2021/06/15 07:31:32;;;;;;;3.97;2.50;;;;;;;22.57;61.63;101088.38;5045402;28;20219;-71
2021/06/15 07:33:58;;;;;;;2.90;2.50;;;;;;;22.64;58.94;101086.16;5043127;28;20727;-74
2021/06/15 07:36:25;;;;;;;4.57;2.80;;;;;;;22.77;60.64;101079.00;5023872;28;20563;-73
2021/06/15 07:38:52;;;;;;;5.30;2.60;;;;;;;22.87;59.20;101079.22;5041356;28;20296;-71
2021/06/15 07:41:19;;;;;;;5.80;2.42;;;;;;;22.92;58.37;101087.72;5041870;28;20203;-72
2021/06/15 07:43:46;;;;;;;3.13;2.80;;;;;;;22.84;60.05;101082.94;5041064;28;20230;-72
2021/06/15 07:46:15;;;;;;;3.95;2.90;;;;;;;22.81;58.35;101077.84;4996417;28;20251;-72
2021/06/15 07:48:41;;;;;;;4.10;2.65;;;;;;;22.87;58.14;101077.41;5004844;28;20219;-72
2021/06/15 07:51:08;;;;;;;5.20;2.70;;;;;;;22.91;58.15;101069.22;5004070;28;20202;-72
2021/06/15 07:53:34;;;;;;;3.85;2.55;;;;;;;23.01;58.13;101072.94;4996346;28;20299;-73
2021/06/15 07:56:01;;;;;;;3.55;2.67;;;;;;;23.02;57.81;101074.59;5004539;28;20206;-72
2021/06/15 07:58:27;;;;;;;6.68;3.13;;;;;;;23.00;57.72;101073.88;5004583;28;20262;-72
2021/06/15 08:00:55;;;;;;;3.83;2.70;;;;;;;23.22;60.78;101070.56;5006878;28;20203;-72
2021/06/15 08:03:23;;;;;;;3.42;2.80;;;;;;;23.44;59.82;101067.16;5002634;28;20259;-72
2021/06/15 08:05:50;;;;;;;5.13;2.67;;;;;;;23.60;57.44;101073.03;5003248;28;20189;-72
2021/06/15 08:08:16;;;;;;;6.10;2.90;;;;;;;23.63;56.72;101071.97;4997488;28;20240;-72
2021/06/15 08:10:43;;;;;;;5.55;2.42;;;;;;;23.74;57.19;101066.69;5003333;28;20225;-72
2021/06/15 08:13:09;;;;;;;3.45;2.58;;;;;;;23.99;55.44;101067.53;5002403;28;20251;-72
2021/06/15 08:15:36;;;;;;;4.40;2.55;;;;;;;24.28;54.08;101075.97;5009506;28;20209;-72
2021/06/15 08:18:03;;;;;;;3.25;2.45;;;;;;;24.47;56.67;101067.41;4993397;28;20681;-72
2021/06/15 08:20:30;;;;;;;4.10;2.60;;;;;;;24.66;54.31;101076.66;5007678;28;20633;-72
2021/06/15 08:22:56;;;;;;;2.97;2.40;;;;;;;24.79;54.12;101073.88;5000612;28;20216;-72
2021/06/15 08:25:23;;;;;;;3.97;2.33;;;;;;;24.85;50.34;101082.22;5000984;28;20219;-72
2021/06/15 08:27:50;;;;;;;3.45;2.35;;;;;;;24.91;49.54;101078.25;4998397;28;20240;-72
2021/06/15 08:30:17;;;;;;;4.22;2.40;;;;;;;25.00;51.33;101077.50;5003488;28;20197;-72
2021/06/15 08:32:44;;;;;;;3.58;2.17;;;;;;;25.06;48.80;101078.81;4983766;28;20786;-72
2021/06/15 08:35:12;;;;;;;5.57;2.10;;;;;;;25.19;51.76;101079.53;5002472;28;20588;-73
2021/06/15 08:37:40;;;;;;;4.18;2.20;;;;;;;25.32;50.30;101079.41;4999906;28;20320;-73
2021/06/15 08:40:08;;;;;;;4.20;2.33;;;;;;;25.50;51.53;101082.41;4995353;28;21500;-72
2021/06/15 08:42:37;;;;;;;6.03;2.40;;;;;;;25.55;49.68;101082.03;5000860;28;20201;-71
2021/06/15 08:45:04;;;;;;;3.30;2.40;;;;;;;25.69;50.45;101079.91;5002739;28;20207;-72
2021/06/15 08:47:31;;;;;;;3.50;2.28;;;;;;;25.76;49.06;101079.41;5005021;28;20220;-71
2021/06/15 08:49:57;;;;;;;3.78;2.30;;;;;;;25.85;48.91;101074.13;5001948;28;20207;-71
2021/06/15 08:52:27;;;;;;;3.80;2.35;;;;;;;26.02;49.58;101082.59;5000662;28;20205;-71
2021/06/15 08:54:53;;;;;;;2.45;2.25;;;;;;;26.12;49.50;101075.50;5002498;28;20220;-73
2021/06/15 08:57:22;;;;;;;3.67;2.28;;;;;;;25.96;46.81;101075.97;5000462;28;20225;-72
2021/06/15 08:59:49;;;;;;;3.08;1.80;;;;;;;26.02;49.10;101078.09;5005805;28;20214;-72
2021/06/15 09:02:16;;;;;;;2.38;1.92;;;;;;;26.01;48.34;101075.56;4999275;28;20207;-72
2021/06/15 09:04:43;;;;;;;2.50;2.05;;;;;;;25.98;46.71;101076.66;4985717;28;20205;-73
2021/06/15 09:07:10;;;;;;;2.45;1.85;;;;;;;26.05;47.02;101082.31;5001609;28;20225;-75
2021/06/15 09:09:43;;;;;;;3.80;1.90;;;;;;;26.07;47.41;101075.03;5006326;28;20220;-72
2021/06/15 09:12:11;;;;;;;2.28;1.85;;;;;;;26.14;47.31;101065.53;5000704;28;20313;-74
2021/06/15 09:14:46;;;;;;;2.22;2.03;;;;;;;26.30;46.70;101069.56;5005033;28;20244;-71
2021/06/15 09:17:14;;;;;;;3.40;1.90;;;;;;;26.52;49.18;101069.38;5001544;28;20728;-71
2021/06/15 09:19:42;;;;;;;2.42;1.92;;;;;;;26.58;46.54;101071.53;5006095;28;20236;-73
2021/06/15 09:22:23;;;;;;;2.90;1.80;;;;;;;26.67;44.63;101075.28;5003296;28;20702;-73
2021/06/15 09:24:51;;;;;;;2.60;1.70;;;;;;;26.94;47.38;101073.81;5006378;28;20227;-72
2021/06/15 09:27:17;;;;;;;3.22;2.03;;;;;;;26.98;43.93;101086.81;5002800;28;20224;-73
2021/06/15 09:29:47;;;;;;;3.97;2.00;;;;;;;26.90;43.84;101081.28;4997162;28;20749;-72
2021/06/15 09:32:17;;;;;;;4.00;2.03;;;;;;;26.83;46.01;101072.09;5004913;28;20196;-74
2021/06/15 09:34:49;;;;;;;3.50;2.03;;;;;;;26.81;45.29;101068.72;5000684;28;20664;-72
2021/06/15 09:37:15;;;;;;;4.55;2.20;;;;;;;26.78;44.70;101075.16;5003770;28;20243;-73
2021/06/15 09:39:43;;;;;;;6.15;2.05;;;;;;;26.88;45.00;101071.69;5001606;28;20238;-72
2021/06/15 09:42:13;;;;;;;3.70;2.28;;;;;;;26.89;44.04;101068.88;5000586;28;20232;-72
2021/06/15 09:44:39;;;;;;;3.20;1.95;;;;;;;26.98;43.38;101070.75;5002590;28;20208;-72
2021/06/15 09:47:07;;;;;;;2.75;2.13;;;;;;;27.09;45.94;101066.25;5003877;28;20456;-72
2021/06/15 09:49:36;;;;;;;3.10;2.33;;;;;;;27.07;47.19;101066.41;4986931;28;20240;-72
2021/06/15 09:52:19;;;;;;;3.90;2.28;;;;;;;26.91;46.15;101066.06;5002363;28;20604;-72
2021/06/15 09:54:47;;;;;;;3.03;2.13;;;;;;;26.68;48.28;101063.56;4994844;28;20228;-72
2021/06/15 09:57:23;;;;;;;3.05;2.10;;;;;;;26.62;45.45;101069.47;4998916;28;20497;-72
2021/06/15 10:00:12;;;;;;;3.78;2.30;;;;;;;26.60;47.02;101069.56;5003091;28;20304;-72
2021/06/15 10:02:51;;;;;;;3.53;2.38;;;;;;;26.73;45.03;101071.22;4995592;28;20208;-73
2021/06/15 10:05:36;;;;;;;2.95;2.28;;;;;;;27.00;45.41;101070.63;4997883;28;20206;-72
2021/06/15 10:08:04;;;;;;;2.25;2.05;;;;;;;26.96;47.14;101061.16;5000950;28;20651;-73
2021/06/15 10:10:33;;;;;;;4.50;2.15;;;;;;;27.14;47.44;101059.53;5000794;28;20207;-73
2021/06/15 10:13:01;;;;;;;4.43;2.20;;;;;;;27.38;45.33;101067.19;5002989;28;20629;-73
2021/06/15 10:15:29;;;;;;;3.97;2.22;;;;;;;27.56;45.36;101058.47;5000944;28;20213;-73
2021/06/15 10:17:56;;;;;;;3.90;2.03;;;;;;;27.84;45.19;101064.78;5004657;28;20255;-73
2021/06/15 10:20:25;;;;;;;3.22;2.58;;;;;;;27.73;42.58;101063.13;4998631;28;20834;-73
2021/06/15 10:22:53;;;;;;;4.28;2.20;;;;;;;27.87;43.80;101059.16;5004522;28;21039;-73
2021/06/15 10:25:22;;;;;;;2.85;2.30;;;;;;;27.72;40.90;101066.81;4999466;28;20255;-73
2021/06/15 10:27:50;;;;;;;3.47;2.15;;;;;;;27.54;41.69;101071.97;4999920;28;20324;-73
2021/06/15 10:30:27;;;;;;;2.40;2.05;;;;;;;27.41;42.09;101063.41;5006338;28;20262;-73
2021/06/15 10:32:56;;;;;;;3.20;2.22;;;;;;;27.30;42.74;101060.81;4985317;28;20212;-73
2021/06/15 10:35:36;;;;;;;3.53;2.20;;;;;;;27.20;43.06;101055.44;4999652;28;20216;-73
2021/06/15 10:38:04;;;;;;;5.60;2.28;;;;;;;27.16;42.11;101057.56;4995210;28;20335;-72
2021/06/15 10:40:42;;;;;;;2.63;2.10;;;;;;;27.18;42.96;101057.41;5002087;28;20722;-73
2021/06/15 10:43:12;;;;;;;3.58;2.55;;;;;;;27.05;41.63;101052.28;5002720;28;20216;-73
2021/06/15 10:45:40;;;;;;;3.50;2.00;;;;;;;27.20;42.28;101048.25;5001726;28;20196;-73
2021/06/15 10:48:28;;;;;;;3.83;2.25;;;;;;;27.19;43.98;101048.38;5004032;28;20239;-72
2021/06/15 10:50:57;;;;;;;2.85;2.08;;;;;;;27.31;43.62;101044.63;5004144;28;20697;-72
2021/06/15 10:53:35;;;;;;;2.95;1.90;;;;;;;27.55;42.89;101044.22;5000015;28;20200;-73
2021/06/15 10:56:04;;;;;;;3.05;2.28;;;;;;;27.79;41.99;101048.31;5000241;28;20315;-72
2021/06/15 10:59:02;;;;;;;2.58;2.17;;;;;;;27.84;41.94;101045.22;5004233;28;20228;-72
2021/06/15 11:01:31;;;;;;;2.63;1.88;;;;;;;27.84;40.88;101045.22;5001431;28;20208;-73
2021/06/15 11:03:59;;;;;;;2.97;2.13;;;;;;;27.93;43.01;101037.22;5002061;28;20209;-72
2021/06/15 11:06:41;;;;;;;3.83;2.10;;;;;;;28.09;42.41;101035.75;5000063;28;20211;-72
2021/06/15 11:09:34;;;;;;;3.03;2.03;;;;;;;28.07;40.00;101041.28;5004195;28;20211;-73
2021/06/15 11:12:23;;;;;;;2.20;1.90;;;;;;;27.94;39.33;101038.03;4993858;28;20205;-72
2021/06/15 11:15:24;;;;;;;2.47;2.20;;;;;;;27.99;44.42;101033.09;5002290;28;20216;-73
2021/06/15 11:18:20;;;;;;;2.30;2.00;;;;;;;27.77;43.89;101031.53;5002091;28;20218;-73
2021/06/15 11:21:34;;;;;;;2.83;2.20;;;;;;;27.63;41.65;101032.81;4994010;28;20239;-72
2021/06/15 11:24:22;;;;;;;3.88;2.33;;;;;;;27.88;44.41;101035.88;4997808;28;20200;-73
2021/06/15 11:26:56;;;;;;;3.90;2.28;;;;;;;28.10;42.99;101022.19;5004590;28;20227;-73
2021/06/15 11:29:44;;;;;;;3.72;2.28;;;;;;;28.42;43.87;101020.97;4998155;28;20212;-73
2021/06/15 11:32:27;;;;;;;3.08;2.30;;;;;;;28.62;40.94;101024.47;4997364;28;20217;-73
2021/06/15 11:35:30;;;;;;;2.22;2.03;;;;;;;28.51;38.87;101024.59;4993759;28;20311;-72
2021/06/15 11:38:14;;;;;;;2.97;2.15;;;;;;;28.57;40.53;101013.34;5001981;28;20697;-72
2021/06/15 11:40:42;;;;;;;3.28;1.98;;;;;;;28.85;40.21;101013.34;5000434;28;20737;-71
2021/06/15 11:43:18;;;;;;;3.63;2.20;;;;;;;29.23;38.61;101014.97;5003146;28;20208;-71